createdAt,value
2018-03-08T00:00:52.729Z,9.60
2018-03-08T00:04:55.992Z,9.20
2018-03-08T00:08:59.313Z,9.37
2018-03-08T00:13:02.307Z,10.03
2018-03-08T00:17:05.273Z,10.37
2018-03-08T00:21:12.382Z,9.60
2018-03-08T00:25:14.910Z,10.07
2018-03-08T00:29:17.452Z,10.20
2018-03-08T00:33:20.378Z,10.50
2018-03-08T00:37:23.499Z,9.43
2018-03-08T00:41:26.419Z,9.07
2018-03-08T00:45:29.726Z,9.93
2018-03-08T00:49:32.228Z,8.77
2018-03-08T00:53:35.205Z,9.87
2018-03-08T00:57:38.500Z,10.33
2018-03-08T01:01:41.063Z,7.50
2018-03-08T01:05:43.565Z,8.47
2018-03-08T01:09:47.055Z,11.40
2018-03-08T01:13:50.342Z,9.77
2018-03-08T01:17:52.893Z,9.00
2018-03-08T01:21:55.796Z,8.40
2018-03-08T01:25:59.564Z,9.90
2018-03-08T01:30:04.432Z,9.00
2018-03-08T01:34:07.469Z,8.93
2018-03-08T01:38:10.002Z,9.37
2018-03-08T01:42:12.643Z,9.43
2018-03-08T01:46:15.553Z,9.33
2018-03-08T01:50:18.493Z,9.60
2018-03-08T01:54:21.794Z,8.80
2018-03-08T01:58:25.336Z,11.73
2018-03-08T02:02:28.641Z,11.17
2018-03-08T02:06:31.671Z,8.07
2018-03-08T02:10:34.571Z,8.23
2018-03-08T02:14:37.879Z,10.93
2018-03-08T02:18:40.672Z,9.13
2018-03-08T02:22:44.004Z,7.70
2018-03-08T02:26:47.318Z,7.77
2018-03-08T02:30:49.910Z,9.50
2018-03-08T02:34:53.188Z,9.20
2018-03-08T02:38:56.850Z,9.50
2018-03-08T02:43:00.652Z,8.97
2018-03-08T02:47:04.198Z,10.63
2018-03-08T02:51:07.478Z,8.43
2018-03-08T02:55:11.398Z,10.27
2018-03-08T02:59:14.355Z,7.83
2018-03-08T03:03:17.683Z,7.23
2018-03-08T03:07:20.188Z,9.37
2018-03-08T03:11:23.503Z,6.87
2018-03-08T03:15:26.793Z,12.70
2018-03-08T03:19:32.706Z,8.93
2018-03-08T03:23:36.725Z,8.17
2018-03-08T03:27:39.284Z,7.47
2018-03-08T03:31:42.574Z,7.87
2018-03-08T03:35:45.524Z,8.07
2018-03-08T03:39:48.831Z,8.77
2018-03-08T03:43:51.396Z,7.83
2018-03-08T03:47:54.704Z,10.33
2018-03-08T03:51:58.021Z,7.27
2018-03-08T03:56:02.563Z,8.83
2018-03-08T04:00:05.589Z,11.47
2018-03-08T04:04:08.521Z,12.63
2018-03-08T04:08:11.456Z,8.90
2018-03-08T04:12:17.654Z,11.93
2018-03-08T04:16:20.899Z,11.43
2018-03-08T04:20:24.274Z,11.27
2018-03-08T04:24:27.238Z,10.80
2018-03-08T04:28:30.169Z,11.07
2018-03-08T04:32:32.736Z,13.97
2018-03-08T04:36:36.756Z,12.17
2018-03-08T04:40:40.152Z,15.73
2018-03-08T04:44:42.692Z,12.93
2018-03-08T04:48:45.949Z,11.53
2018-03-08T04:52:48.468Z,13.97
2018-03-08T04:56:51.466Z,12.50
2018-03-08T05:00:53.995Z,11.77
2018-03-08T05:04:56.961Z,13.63
2018-03-08T05:09:00.237Z,7.73
2018-03-08T05:13:03.555Z,9.17
2018-03-08T05:17:06.865Z,11.77
2018-03-08T05:21:10.185Z,12.50
2018-03-08T05:25:13.096Z,11.30
2018-03-08T05:29:17.448Z,14.77
2018-03-08T05:33:20.372Z,14.27
2018-03-08T05:37:24.712Z,14.97
2018-03-08T05:41:27.992Z,11.67
2018-03-08T05:45:31.280Z,13.67
2018-03-08T05:49:34.560Z,15.87
2018-03-08T05:53:37.489Z,19.63
2018-03-08T05:57:40.773Z,14.40
2018-03-08T06:01:43.797Z,14.17
2018-03-08T06:05:46.351Z,13.80
2018-03-08T06:09:49.307Z,13.10
2018-03-08T06:13:52.768Z,13.80
2018-03-08T06:17:55.984Z,16.37
2018-03-08T06:22:00.359Z,11.10
2018-03-08T06:26:07.579Z,15.07
2018-03-08T06:30:10.931Z,14.57
2018-03-08T06:34:17.964Z,12.93
2018-03-08T06:38:21.266Z,11.63
2018-03-08T06:42:24.664Z,13.40
2018-03-08T06:46:27.572Z,9.57
2018-03-08T06:50:30.509Z,11.03
2018-03-08T06:59:02.875Z,9.77
2018-03-08T07:03:06.210Z,13.33
2018-03-08T07:07:09.605Z,12.00
2018-03-08T07:11:12.136Z,11.33
2018-03-08T07:15:15.453Z,17.33
2018-03-08T07:19:18.766Z,13.20
2018-03-08T07:23:22.936Z,12.07
2018-03-08T07:27:25.933Z,13.33
2018-03-08T07:31:30.243Z,10.27
2018-03-08T07:35:32.749Z,8.33
2018-03-08T07:39:36.059Z,9.90
2018-03-08T07:43:38.968Z,8.10
2018-03-08T07:47:42.312Z,8.20
2018-03-08T07:51:46.155Z,10.03
2018-03-08T07:55:49.198Z,15.17
2018-03-08T07:59:51.730Z,13.43
2018-03-08T08:03:55.032Z,10.10
2018-03-08T08:08:10.927Z,12.80
2018-03-08T08:12:13.906Z,11.17
2018-03-08T08:16:16.849Z,11.63
2018-03-08T08:20:20.155Z,9.27
2018-03-08T08:24:24.519Z,11.57
2018-03-08T08:28:27.801Z,8.60
2018-03-08T08:32:30.322Z,9.70
2018-03-08T08:36:33.344Z,6.77
2018-03-08T08:40:35.870Z,5.13
2018-03-08T08:44:38.823Z,6.60
2018-03-08T08:48:41.355Z,6.30
2018-03-08T08:52:44.304Z,5.20
2018-03-08T08:56:47.614Z,6.00
2018-03-08T09:00:50.585Z,6.03
2018-03-08T09:04:53.510Z,7.40
2018-03-08T09:08:56.919Z,6.10
2018-03-08T09:12:59.492Z,7.50
2018-03-08T09:17:02.457Z,6.97
2018-03-08T09:21:05.828Z,8.30
2018-03-08T09:25:08.886Z,8.43
2018-03-08T09:29:11.816Z,8.20
2018-03-08T09:33:14.760Z,11.00
2018-03-08T09:37:20.774Z,9.13
2018-03-08T09:41:23.423Z,9.10
2018-03-08T09:45:26.707Z,9.17
2018-03-08T09:49:29.669Z,9.70
2018-03-08T09:53:32.572Z,7.23
2018-03-08T09:57:35.531Z,8.87
2018-03-08T10:01:38.058Z,9.40
2018-03-08T10:05:41.018Z,8.60
2018-03-08T10:09:45.310Z,11.10
2018-03-08T10:13:47.974Z,7.00
2018-03-08T10:17:50.508Z,7.37
2018-03-08T10:21:53.055Z,6.97
2018-03-08T10:25:55.974Z,8.47
2018-03-08T10:29:58.532Z,9.17
2018-03-08T10:34:01.049Z,8.03
2018-03-08T10:38:03.578Z,9.20
2018-03-08T10:42:06.514Z,10.37
2018-03-08T10:46:09.479Z,9.50
2018-03-08T10:50:12.014Z,4.27
2018-03-08T10:54:15.014Z,7.13
2018-03-08T10:58:18.344Z,6.87
2018-03-08T11:02:26.658Z,6.70
2018-03-08T11:06:29.948Z,6.73
2018-03-08T11:10:32.890Z,4.13
2018-03-08T11:14:36.536Z,7.67
2018-03-08T11:18:39.205Z,4.77
2018-03-08T11:22:42.126Z,4.27
2018-03-08T11:26:45.445Z,4.43
2018-03-08T11:30:48.730Z,5.43
2018-03-08T11:34:51.786Z,3.70
2018-03-08T11:38:55.119Z,6.07
2018-03-08T11:42:58.443Z,5.07
2018-03-08T11:47:02.212Z,3.93
2018-03-08T11:51:03.973Z,3.23
2018-03-08T11:55:06.508Z,4.77
2018-03-08T11:59:09.440Z,3.63
2018-03-08T12:03:12.382Z,3.87
2018-03-08T12:07:15.693Z,7.37
2018-03-08T12:11:18.995Z,3.00
2018-03-08T12:15:21.958Z,4.93
2018-03-08T12:19:24.884Z,1.73
2018-03-08T12:23:27.819Z,3.27
2018-03-08T12:27:31.162Z,2.57
2018-03-08T12:31:34.714Z,3.07
2018-03-08T12:35:38.005Z,4.10
2018-03-08T12:39:40.982Z,4.30
2018-03-08T12:43:43.506Z,5.07
2018-03-08T12:47:46.826Z,2.93
2018-03-08T12:51:49.334Z,4.47
2018-03-08T12:55:52.584Z,4.33
2018-03-08T12:59:55.861Z,2.80
2018-03-08T13:03:58.884Z,4.70
2018-03-08T13:08:01.788Z,4.73
2018-03-08T13:12:04.802Z,2.57
2018-03-08T13:16:08.109Z,3.27
2018-03-08T13:20:11.062Z,4.57
2018-03-08T13:24:13.986Z,4.97
2018-03-08T13:28:16.946Z,4.97
2018-03-08T13:32:19.865Z,6.70
2018-03-08T13:36:22.439Z,5.67
2018-03-08T13:40:24.950Z,7.13
2018-03-08T13:44:27.934Z,5.20
2018-03-08T13:48:30.866Z,4.63
2018-03-08T13:52:35.301Z,4.37
2018-03-08T13:56:38.207Z,7.17
2018-03-08T14:00:41.238Z,8.47
2018-03-08T14:04:43.752Z,7.40
2018-03-08T14:08:46.722Z,3.53
2018-03-08T14:12:49.708Z,5.70
2018-03-08T14:16:52.226Z,11.00
2018-03-08T14:20:55.150Z,4.67
2018-03-08T14:24:58.490Z,4.50
2018-03-08T14:29:01.467Z,10.10
2018-03-08T14:33:04.777Z,6.13
2018-03-08T14:41:16.093Z,6.53
2018-03-08T14:45:19.011Z,3.57
2018-03-08T14:49:22.728Z,7.37
2018-03-08T14:53:25.274Z,5.67
2018-03-08T14:57:28.595Z,5.73
2018-03-08T15:01:31.566Z,6.47
2018-03-08T15:05:34.146Z,2.63
2018-03-08T15:09:37.432Z,2.60
2018-03-08T15:13:40.749Z,4.50
2018-03-08T15:17:43.679Z,4.60
2018-03-08T15:21:46.991Z,3.43
2018-03-08T15:25:49.512Z,6.10
2018-03-08T15:29:52.458Z,5.93
2018-03-08T15:33:55.751Z,5.40
2018-03-08T15:37:58.720Z,3.87
2018-03-08T15:42:02.107Z,2.27
2018-03-08T15:46:05.435Z,3.40
2018-03-08T15:50:08.720Z,2.80
2018-03-08T15:54:11.681Z,3.50
2018-03-08T15:58:14.979Z,4.00
2018-03-08T16:02:23.768Z,3.50
2018-03-08T16:11:07.806Z,3.90
2018-03-08T16:15:10.846Z,1.50
2018-03-08T16:19:13.444Z,5.20
2018-03-08T16:23:17.936Z,3.80
2018-03-08T16:27:22.406Z,3.07
2018-03-08T16:31:24.928Z,2.60
2018-03-08T16:35:28.148Z,6.40
2018-03-08T16:39:30.674Z,2.93
2018-03-08T16:43:34.896Z,6.27
2018-03-08T16:47:40.889Z,2.23
2018-03-08T16:51:43.937Z,5.23
2018-03-08T16:55:46.848Z,3.90
2018-03-08T16:59:50.248Z,7.97
2018-03-08T17:03:53.582Z,1.87
2018-03-08T17:07:56.976Z,3.90
2018-03-08T17:11:59.890Z,4.10
2018-03-08T17:16:02.527Z,5.17
2018-03-08T17:20:06.315Z,2.00
2018-03-08T17:24:09.299Z,2.03
2018-03-08T17:28:11.804Z,3.97
2018-03-08T17:32:14.372Z,4.70
2018-03-08T17:36:18.414Z,0.87
2018-03-08T17:40:21.840Z,2.87
2018-03-08T17:44:24.365Z,1.83
2018-03-08T17:48:26.936Z,1.57
2018-03-08T17:52:29.840Z,2.30
2018-03-08T17:56:33.273Z,2.17
2018-03-08T18:00:36.193Z,2.10
2018-03-08T18:04:40.320Z,1.03
2018-03-08T18:08:43.261Z,1.03
2018-03-08T18:12:46.576Z,1.47
2018-03-08T18:16:49.878Z,0.93
2018-03-08T18:20:53.306Z,2.10
2018-03-08T18:24:56.255Z,1.13
2018-03-08T18:28:59.250Z,1.90
2018-03-08T18:33:02.205Z,3.43
2018-03-08T18:37:08.697Z,2.03
2018-03-08T18:41:11.615Z,1.80
2018-03-08T18:45:14.948Z,2.27
2018-03-08T18:49:17.864Z,0.80
2018-03-08T18:53:23.119Z,3.53
2018-03-08T18:57:26.422Z,2.40
2018-03-08T19:01:29.368Z,3.07
2018-03-08T19:05:32.292Z,1.07
2018-03-08T19:09:35.718Z,2.00
2018-03-08T19:13:39.018Z,1.90
2018-03-08T19:17:42.347Z,1.40
2018-03-08T19:21:45.843Z,2.03
2018-03-08T19:25:48.877Z,3.30
2018-03-08T19:29:52.195Z,1.67
2018-03-08T19:33:55.757Z,0.70
2018-03-08T19:37:58.698Z,1.63
2018-03-08T19:42:02.126Z,1.23
2018-03-08T19:46:04.666Z,2.37
2018-03-08T19:50:07.222Z,2.20
2018-03-08T19:54:10.197Z,1.37
2018-03-08T19:58:13.132Z,1.30
2018-03-08T20:02:16.123Z,1.70
2018-03-08T20:06:18.760Z,2.87
2018-03-08T20:10:21.343Z,2.43
2018-03-08T20:14:23.920Z,1.50
2018-03-08T20:18:27.212Z,1.60
2018-03-08T20:22:30.262Z,3.70
2018-03-08T20:26:32.778Z,2.40
2018-03-08T20:30:35.332Z,3.47
2018-03-08T20:34:39.666Z,2.20
2018-03-08T20:38:42.248Z,6.93
2018-03-08T20:42:45.179Z,3.60
2018-03-08T20:46:48.566Z,3.20
2018-03-08T20:51:01.779Z,2.80
2018-03-08T20:55:04.376Z,5.23
2018-03-08T20:59:07.376Z,3.10
2018-03-08T21:03:10.754Z,6.73
2018-03-08T21:07:14.056Z,3.50
2018-03-08T21:11:16.606Z,4.60
2018-03-08T21:15:19.967Z,2.53
2018-03-08T21:19:22.904Z,4.43
2018-03-08T21:23:26.227Z,7.83
2018-03-08T21:27:28.810Z,2.73
2018-03-08T21:31:32.094Z,3.50
2018-03-08T21:35:35.734Z,2.70
2018-03-08T21:39:39.820Z,2.97
2018-03-08T21:43:42.378Z,1.80
2018-03-08T21:47:44.931Z,4.30
2018-03-08T21:51:48.236Z,3.13
2018-03-08T21:55:51.160Z,2.50
2018-03-08T21:59:55.237Z,3.07
2018-03-08T22:03:57.757Z,4.90
2018-03-08T22:08:00.322Z,3.67
2018-03-08T22:12:03.271Z,2.00
2018-03-08T22:16:06.312Z,3.73
2018-03-08T22:20:09.884Z,3.87
2018-03-08T22:24:12.827Z,3.23
2018-03-08T22:28:17.735Z,2.87
2018-03-08T22:32:21.816Z,3.77
2018-03-08T22:36:25.097Z,2.73
2018-03-08T22:44:37.196Z,5.57
2018-03-08T22:48:39.775Z,5.07
2018-03-08T22:52:42.719Z,2.43
2018-03-08T22:56:45.260Z,3.40
2018-03-08T23:00:48.186Z,3.20
2018-03-08T23:04:51.870Z,4.13
2018-03-08T23:08:54.787Z,6.23
2018-03-08T23:12:57.761Z,5.03
2018-03-08T23:17:00.280Z,3.80
2018-03-08T23:21:02.831Z,3.43
2018-03-08T23:25:06.127Z,4.70
2018-03-08T23:29:09.530Z,5.20
2018-03-08T23:33:12.841Z,8.13
2018-03-08T23:37:16.145Z,5.23
2018-03-08T23:41:18.678Z,3.53
2018-03-08T23:45:22.656Z,5.43
2018-03-08T23:49:25.944Z,6.87
2018-03-08T23:53:28.903Z,3.40
2018-03-08T23:57:31.436Z,6.37
